createdAt,value
2023-03-11T00:00:32.460Z,87.07
2023-03-11T00:01:32.447Z,87.69
2023-03-11T00:02:32.437Z,88.01
2023-03-11T00:03:32.483Z,87.27
2023-03-11T00:04:32.432Z,87.07
2023-03-11T00:05:32.518Z,87.27
2023-03-11T00:06:32.408Z,87.59
2023-03-11T00:07:32.406Z,88.42
2023-03-11T00:08:32.391Z,88.11
2023-03-11T00:09:32.389Z,87.80
2023-03-11T00:10:32.413Z,87.69
2023-03-11T00:11:32.388Z,88.53
2023-03-11T00:12:32.351Z,87.80
2023-03-11T00:13:32.353Z,87.07
2023-03-11T00:14:32.337Z,87.07
2023-03-11T00:15:32.333Z,86.65
2023-03-11T00:16:32.347Z,88.01
2023-03-11T00:17:32.318Z,87.07
2023-03-11T00:18:32.282Z,86.13
2023-03-11T00:19:32.279Z,87.07
2023-03-11T00:20:32.291Z,87.27
2023-03-11T00:21:32.273Z,87.07
2023-03-11T00:22:32.260Z,86.96
2023-03-11T00:23:32.254Z,86.85
2023-03-11T00:24:32.233Z,86.75
2023-03-11T00:25:32.261Z,86.65
2023-03-11T00:26:32.210Z,86.75
2023-03-11T00:27:32.215Z,87.07
2023-03-11T00:28:34.285Z,85.60
2023-03-11T00:29:32.186Z,86.02
2023-03-11T00:30:32.212Z,85.71
2023-03-11T00:31:32.175Z,86.54
2023-03-11T00:32:32.189Z,85.91
2023-03-11T00:33:32.148Z,86.02
2023-03-11T00:34:32.145Z,86.75
2023-03-11T00:35:32.155Z,86.13
2023-03-11T00:36:32.117Z,85.39
2023-03-11T00:37:32.112Z,86.33
2023-03-11T00:38:32.095Z,86.13
2023-03-11T00:39:32.087Z,85.08
2023-03-11T00:40:32.078Z,84.87
2023-03-11T00:41:32.056Z,85.39
2023-03-11T00:42:32.064Z,85.50
2023-03-11T00:43:32.047Z,86.23
2023-03-11T00:44:32.028Z,85.81
2023-03-11T00:45:32.030Z,85.91
2023-03-11T00:46:32.030Z,86.85
2023-03-11T00:47:32.017Z,86.85
2023-03-11T00:48:32.000Z,86.13
2023-03-11T00:49:31.977Z,86.33
2023-03-11T00:50:31.977Z,85.50
2023-03-11T00:51:34.113Z,85.50
2023-03-11T00:52:31.952Z,85.39
2023-03-11T00:53:31.946Z,84.56
2023-03-11T00:54:31.948Z,84.66
2023-03-11T00:55:32.238Z,85.39
2023-03-11T00:56:31.906Z,84.97
2023-03-11T00:57:31.905Z,84.97
2023-03-11T00:58:31.906Z,85.71
2023-03-11T00:59:31.883Z,84.56
2023-03-11T01:00:32.126Z,85.08
2023-03-11T01:01:31.925Z,84.87
2023-03-11T01:02:31.850Z,84.97
2023-03-11T01:03:31.843Z,84.97
2023-03-11T01:04:31.873Z,86.02
2023-03-11T01:05:32.207Z,85.08
2023-03-11T01:06:43.179Z,84.45
2023-03-11T01:07:31.821Z,84.77
2023-03-11T01:08:31.784Z,86.13
2023-03-11T01:09:31.789Z,84.45
2023-03-11T01:10:32.086Z,84.14
2023-03-11T01:11:31.756Z,84.24
2023-03-11T01:12:31.750Z,84.03
2023-03-11T01:13:31.753Z,82.89
2023-03-11T01:14:31.743Z,83.51
2023-03-11T01:15:31.797Z,83.62
2023-03-11T01:16:31.710Z,83.30
2023-03-11T01:17:31.719Z,83.93
2023-03-11T01:18:31.680Z,84.66
2023-03-11T01:19:31.692Z,84.97
2023-03-11T01:20:31.976Z,83.30
2023-03-11T01:21:31.665Z,84.24
2023-03-11T01:22:31.655Z,84.77
2023-03-11T01:23:31.644Z,84.77
2023-03-11T01:24:31.647Z,84.97
2023-03-11T01:25:31.976Z,83.72
2023-03-11T01:26:31.606Z,81.95
2023-03-11T01:27:31.598Z,81.77
2023-03-11T01:28:31.575Z,81.25
2023-03-11T01:29:31.580Z,81.42
2023-03-11T01:30:31.816Z,81.15
2023-03-11T01:31:31.617Z,81.25
2023-03-11T01:32:31.592Z,80.48
2023-03-11T01:33:31.556Z,80.52
2023-03-11T01:34:31.522Z,82.15
2023-03-11T01:35:31.900Z,81.77
2023-03-11T01:36:31.509Z,81.04
2023-03-11T01:37:31.502Z,80.93
2023-03-11T01:38:31.484Z,82.29
2023-03-11T01:39:31.489Z,81.67
2023-03-11T01:40:31.461Z,81.77
2023-03-11T01:41:31.468Z,81.46
2023-03-11T01:42:31.448Z,81.46
2023-03-11T01:43:31.453Z,81.46
2023-03-11T01:44:31.418Z,81.67
2023-03-11T01:45:31.434Z,81.56
2023-03-11T01:46:31.448Z,81.35
2023-03-11T01:47:31.406Z,80.62
2023-03-11T01:48:31.413Z,81.67
2023-03-11T01:49:31.386Z,81.56
2023-03-11T01:50:31.380Z,82.82
2023-03-11T01:51:31.387Z,81.87
2023-03-11T01:52:31.358Z,81.25
2023-03-11T01:53:31.342Z,81.25
2023-03-11T01:54:31.339Z,81.98
2023-03-11T01:55:31.313Z,81.87
2023-03-11T01:56:31.340Z,81.15
2023-03-11T01:57:31.291Z,82.29
2023-03-11T01:58:31.299Z,81.77
2023-03-11T01:59:31.280Z,80.66
2023-03-11T02:00:31.283Z,81.04
2023-03-11T02:01:31.268Z,81.87
2023-03-11T02:02:31.297Z,81.15
2023-03-11T02:03:31.227Z,81.67
2023-03-11T02:04:31.223Z,82.40
2023-03-11T02:05:31.211Z,81.98
2023-03-11T02:06:31.224Z,81.25
2023-03-11T02:07:31.200Z,82.29
2023-03-11T02:08:31.197Z,82.40
2023-03-11T02:09:31.201Z,82.09
2023-03-11T02:10:31.214Z,82.29
2023-03-11T02:11:31.170Z,81.67
2023-03-11T02:12:31.171Z,82.92
2023-03-11T02:13:31.135Z,83.23
2023-03-11T02:14:31.120Z,83.03
2023-03-11T02:15:31.125Z,82.54
2023-03-11T02:16:31.178Z,82.82
2023-03-11T02:17:31.112Z,82.92
2023-03-11T02:18:31.107Z,83.27
2023-03-11T02:19:31.073Z,83.44
2023-03-11T02:20:31.072Z,83.27
2023-03-11T02:21:31.079Z,83.17
2023-03-11T02:22:31.105Z,83.06
2023-03-11T02:23:31.029Z,83.80
2023-03-11T02:24:31.043Z,84.32
2023-03-11T02:25:31.021Z,83.17
2023-03-11T02:26:31.014Z,83.59
2023-03-11T02:27:31.032Z,84.11
2023-03-11T02:28:31.030Z,83.48
2023-03-11T02:29:31.012Z,82.96
2023-03-11T02:30:31.033Z,83.27
2023-03-11T02:31:31.032Z,83.80
2023-03-11T02:32:30.975Z,83.59
2023-03-11T02:33:30.955Z,84.42
2023-03-11T02:34:30.944Z,84.32
2023-03-11T02:35:30.967Z,84.22
2023-03-11T02:36:30.936Z,82.75
2023-03-11T02:37:30.917Z,83.80
2023-03-11T02:38:30.897Z,83.80
2023-03-11T02:39:30.886Z,82.75
2023-03-11T02:40:30.877Z,83.17
2023-03-11T02:41:30.869Z,82.86
2023-03-11T02:42:30.869Z,83.69
2023-03-11T02:43:30.837Z,83.59
2023-03-11T02:44:30.856Z,82.86
2023-03-11T02:45:30.813Z,83.59
2023-03-11T02:46:30.840Z,83.69
2023-03-11T02:47:30.796Z,84.00
2023-03-11T02:48:30.789Z,83.59
2023-03-11T02:49:30.787Z,84.22
2023-03-11T02:50:30.781Z,84.32
2023-03-11T02:51:30.765Z,84.32
2023-03-11T02:52:30.754Z,84.42
2023-03-11T02:53:30.732Z,84.53
2023-03-11T02:54:30.726Z,85.47
2023-03-11T02:55:30.714Z,84.63
2023-03-11T02:56:30.725Z,84.53
2023-03-11T02:57:30.705Z,84.95
2023-03-11T02:58:30.706Z,85.47
2023-03-11T02:59:30.699Z,85.05
2023-03-11T03:00:30.680Z,83.59
2023-03-11T03:01:30.667Z,83.48
2023-03-11T03:02:30.646Z,83.48
2023-03-11T03:03:30.628Z,82.86
2023-03-11T03:04:30.674Z,82.43
2023-03-11T03:05:30.610Z,81.70
2023-03-11T03:06:30.612Z,81.70
2023-03-11T03:07:30.594Z,81.60
2023-03-11T03:08:30.635Z,82.12
2023-03-11T03:09:30.589Z,82.23
2023-03-11T03:10:30.569Z,82.82
2023-03-11T03:11:30.559Z,82.02
2023-03-11T03:12:30.556Z,82.33
2023-03-11T03:13:30.528Z,82.75
2023-03-11T03:14:30.530Z,82.43
2023-03-11T03:15:30.527Z,83.27
2023-03-11T03:16:30.613Z,81.92
2023-03-11T03:17:30.494Z,82.75
2023-03-11T03:18:30.489Z,82.12
2023-03-11T03:19:30.476Z,82.33
2023-03-11T03:20:30.475Z,82.12
2023-03-11T03:21:30.458Z,82.86
2023-03-11T03:22:30.449Z,83.65
2023-03-11T03:23:30.433Z,82.86
2023-03-11T03:24:30.423Z,83.27
2023-03-11T03:25:30.427Z,83.06
2023-03-11T03:26:30.422Z,83.59
2023-03-11T03:27:30.400Z,84.00
2023-03-11T03:28:30.401Z,84.11
2023-03-11T03:29:30.399Z,84.74
2023-03-11T03:30:30.379Z,84.63
2023-03-11T03:31:30.404Z,84.63
2023-03-11T03:32:30.355Z,86.41
2023-03-11T03:33:30.354Z,87.46
2023-03-11T03:34:30.334Z,89.13
2023-03-11T03:35:30.343Z,89.70
2023-03-11T03:36:30.345Z,90.43
2023-03-11T03:37:30.299Z,92.14
2023-03-11T03:38:30.305Z,92.98
2023-03-11T03:39:30.831Z,93.19
2023-03-11T03:40:30.283Z,93.19
2023-03-11T03:41:30.612Z,93.30
2023-03-11T03:42:30.263Z,93.40
2023-03-11T03:43:30.251Z,93.61
2023-03-11T03:44:30.249Z,94.13
2023-03-11T03:45:30.227Z,94.13
2023-03-11T03:46:30.626Z,93.93
2023-03-11T03:47:30.209Z,93.93
2023-03-11T03:48:30.193Z,93.82
2023-03-11T03:49:30.186Z,93.93
2023-03-11T03:50:30.171Z,93.40
2023-03-11T03:51:30.484Z,93.08
2023-03-11T03:52:30.159Z,93.19
2023-03-11T03:53:30.153Z,92.25
2023-03-11T03:54:30.139Z,92.35
2023-03-11T03:55:30.135Z,92.46
2023-03-11T03:56:30.379Z,92.77
2023-03-11T03:57:30.132Z,92.88
2023-03-11T03:58:30.091Z,92.10
2023-03-11T03:59:30.140Z,91.72
2023-03-11T04:00:30.081Z,90.95
2023-03-11T04:01:30.423Z,89.70
2023-03-11T04:02:30.141Z,90.01
2023-03-11T04:03:30.100Z,89.70
2023-03-11T04:04:30.045Z,90.01
2023-03-11T04:05:30.041Z,90.53
2023-03-11T04:06:30.588Z,90.33
2023-03-11T04:07:30.010Z,91.06
2023-03-11T04:08:30.011Z,91.16
2023-03-11T04:09:30.005Z,92.67
2023-03-11T04:10:29.972Z,93.30
2023-03-11T04:11:30.253Z,93.93
2023-03-11T04:12:29.957Z,93.61
2023-03-11T04:13:29.963Z,94.13
2023-03-11T04:14:29.956Z,94.24
2023-03-11T04:15:29.931Z,94.03
2023-03-11T04:16:30.334Z,93.51
2023-03-11T04:17:29.918Z,93.71
2023-03-11T04:18:29.897Z,93.71
2023-03-11T04:19:29.902Z,93.30
2023-03-11T04:20:29.897Z,93.51
2023-03-11T04:21:29.902Z,93.51
2023-03-11T04:22:29.865Z,92.57
2023-03-11T04:23:29.867Z,93.40
2023-03-11T04:24:29.848Z,93.30
2023-03-11T04:25:29.836Z,92.67
2023-03-11T04:26:30.219Z,91.52
2023-03-11T04:27:29.844Z,92.31
2023-03-11T04:28:29.809Z,92.52
2023-03-11T04:29:29.807Z,91.89
2023-03-11T04:30:29.781Z,92.10
2023-03-11T04:31:30.157Z,91.31
2023-03-11T04:32:29.799Z,90.84
2023-03-11T04:33:29.748Z,91.47
2023-03-11T04:34:29.745Z,91.89
2023-03-11T04:35:29.778Z,92.00
2023-03-11T04:36:29.715Z,91.27
2023-03-11T04:37:29.716Z,90.84
2023-03-11T04:38:29.709Z,90.84
2023-03-11T04:39:29.702Z,90.64
2023-03-11T04:40:29.673Z,90.95
2023-03-11T04:41:29.674Z,90.64
2023-03-11T04:42:29.675Z,90.84
2023-03-11T04:43:29.669Z,90.84
2023-03-11T04:44:29.631Z,90.01
2023-03-11T04:45:29.654Z,90.95
2023-03-11T04:46:29.640Z,90.43
2023-03-11T04:47:29.636Z,90.53
2023-03-11T04:48:29.599Z,90.11
2023-03-11T04:49:29.616Z,90.74
2023-03-11T04:50:29.594Z,90.84
2023-03-11T04:51:29.568Z,90.74
2023-03-11T04:52:29.563Z,91.06
2023-03-11T04:53:29.559Z,91.37
2023-03-11T04:54:29.552Z,91.47
2023-03-11T04:55:29.526Z,91.16
2023-03-11T04:56:29.530Z,90.74
2023-03-11T04:57:29.542Z,91.47
2023-03-11T04:58:29.499Z,91.79
2023-03-11T04:59:29.494Z,90.74
2023-03-11T05:00:29.490Z,90.64
2023-03-11T05:01:29.497Z,90.95
2023-03-11T05:02:29.475Z,90.43
2023-03-11T05:03:29.541Z,90.11
2023-03-11T05:04:29.484Z,91.16
2023-03-11T05:05:29.449Z,90.33
2023-03-11T05:06:29.424Z,90.22
2023-03-11T05:07:29.413Z,90.84
2023-03-11T05:08:29.398Z,90.43
2023-03-11T05:09:29.422Z,91.27
2023-03-11T05:10:31.762Z,91.06
2023-03-11T05:11:29.392Z,90.84
2023-03-11T05:12:29.362Z,90.43
2023-03-11T05:13:29.351Z,90.01
2023-03-11T05:14:29.329Z,89.80
2023-03-11T05:15:29.335Z,90.43
2023-03-11T05:16:29.326Z,91.16
2023-03-11T05:17:29.342Z,91.27
2023-03-11T05:18:29.307Z,90.53
2023-03-11T05:19:29.291Z,90.74
2023-03-11T05:20:29.238Z,91.27
2023-03-11T05:21:29.287Z,90.84
2023-03-11T05:22:29.283Z,90.64
2023-03-11T05:23:29.231Z,90.53
2023-03-11T05:24:29.200Z,90.84
2023-03-11T05:25:29.202Z,90.22
2023-03-11T05:26:29.229Z,89.59
2023-03-11T05:27:29.170Z,90.11
2023-03-11T05:28:29.139Z,89.70
2023-03-11T05:29:29.159Z,90.33
2023-03-11T05:30:29.197Z,89.38
2023-03-11T05:31:29.219Z,89.59
2023-03-11T05:32:29.179Z,89.48
2023-03-11T05:33:29.119Z,89.59
2023-03-11T05:34:29.102Z,89.48
2023-03-11T05:35:29.105Z,90.01
2023-03-11T05:36:29.054Z,89.90
2023-03-11T05:37:29.084Z,89.28
2023-03-11T05:38:29.052Z,89.80
2023-03-11T05:39:29.040Z,90.53
2023-03-11T05:40:29.027Z,90.33
2023-03-11T05:41:29.029Z,90.22
2023-03-11T05:42:29.018Z,90.11
2023-03-11T05:43:29.008Z,89.70
2023-03-11T05:44:28.982Z,89.90
2023-03-11T05:45:29.003Z,89.07
2023-03-11T05:46:29.012Z,89.07
2023-03-11T05:47:28.979Z,89.70
2023-03-11T05:48:28.961Z,89.28
2023-03-11T05:49:28.940Z,89.48
2023-03-11T05:50:28.934Z,89.90
2023-03-11T05:51:28.950Z,89.59
2023-03-11T05:52:28.927Z,89.70
2023-03-11T05:53:28.921Z,89.28
2023-03-11T05:54:28.911Z,88.90
2023-03-11T05:55:28.892Z,89.59
2023-03-11T05:56:28.877Z,89.07
2023-03-11T05:57:28.864Z,89.28
2023-03-11T05:58:28.908Z,89.07
2023-03-11T05:59:28.858Z,89.48
2023-03-11T06:00:28.837Z,89.59
2023-03-11T06:01:28.829Z,89.59
2023-03-11T06:02:28.810Z,89.48
2023-03-11T06:03:28.801Z,90.01
2023-03-11T06:04:28.882Z,88.96
2023-03-11T06:05:28.845Z,89.59
2023-03-11T06:06:28.774Z,90.33
2023-03-11T06:07:28.787Z,89.28
2023-03-11T06:08:28.748Z,89.38
2023-03-11T06:09:28.745Z,89.07
2023-03-11T06:10:28.721Z,88.65
2023-03-11T06:11:28.725Z,88.65
2023-03-11T06:12:28.720Z,88.86
2023-03-11T06:13:28.700Z,88.12
2023-03-11T06:14:28.684Z,87.92
2023-03-11T06:15:28.679Z,87.71
2023-03-11T06:16:28.774Z,87.39
2023-03-11T06:17:30.400Z,87.71
2023-03-11T06:18:28.659Z,88.23
2023-03-11T06:19:28.637Z,87.39
2023-03-11T06:20:28.633Z,87.08
2023-03-11T06:21:28.610Z,87.18
2023-03-11T06:22:28.615Z,86.35
2023-03-11T06:23:28.614Z,87.29
2023-03-11T06:24:28.590Z,86.98
2023-03-11T06:25:28.572Z,86.98
2023-03-11T06:26:28.563Z,87.81
2023-03-11T06:27:28.580Z,87.39
2023-03-11T06:28:28.552Z,87.81
2023-03-11T06:29:28.542Z,87.39
2023-03-11T06:30:28.532Z,87.50
2023-03-11T06:31:28.613Z,87.50
2023-03-11T06:32:28.834Z,87.39
2023-03-11T06:33:28.511Z,87.08
2023-03-11T06:34:28.492Z,86.87
2023-03-11T06:35:28.474Z,87.29
2023-03-11T06:36:28.489Z,87.77
2023-03-11T06:37:28.915Z,87.46
2023-03-11T06:38:28.461Z,87.71
2023-03-11T06:39:28.441Z,87.18
2023-03-11T06:40:28.428Z,87.50
2023-03-11T06:41:28.426Z,87.08
2023-03-11T06:42:28.713Z,87.39
2023-03-11T06:43:28.419Z,87.29
2023-03-11T06:44:28.376Z,87.04
2023-03-11T06:45:28.521Z,87.35
2023-03-11T06:46:28.376Z,86.87
2023-03-11T06:47:28.859Z,87.56
2023-03-11T06:48:28.393Z,86.98
2023-03-11T06:49:28.371Z,86.72
2023-03-11T06:50:28.352Z,88.34
2023-03-11T06:51:28.356Z,87.88
2023-03-11T06:52:28.620Z,87.77
2023-03-11T06:53:28.324Z,88.19
2023-03-11T06:54:28.298Z,87.35
2023-03-11T06:55:28.279Z,84.84
2023-03-11T06:56:28.264Z,85.58
2023-03-11T06:57:28.737Z,86.31
2023-03-11T06:58:28.251Z,86.31
2023-03-11T06:59:28.252Z,86.41
2023-03-11T07:00:28.249Z,87.35
2023-03-11T07:01:28.366Z,86.10
2023-03-11T07:02:28.509Z,85.99
2023-03-11T07:03:28.194Z,86.16
2023-03-11T07:04:28.245Z,85.53
2023-03-11T07:05:28.192Z,85.85
2023-03-11T07:06:28.166Z,86.27
2023-03-11T07:07:28.629Z,85.53
2023-03-11T07:08:28.175Z,83.65
2023-03-11T07:09:28.136Z,83.65
2023-03-11T07:10:28.128Z,84.17
2023-03-11T07:11:28.124Z,84.28
2023-03-11T07:12:28.446Z,84.28
2023-03-11T07:13:28.100Z,83.76
2023-03-11T07:14:28.090Z,84.91
2023-03-11T07:15:28.086Z,85.91
2023-03-11T07:16:28.121Z,85.18
2023-03-11T07:17:28.514Z,83.40
2023-03-11T07:18:28.045Z,83.20
2023-03-11T07:19:28.049Z,83.40
2023-03-11T07:20:28.034Z,82.36
2023-03-11T07:21:28.017Z,81.95
2023-03-11T07:22:28.316Z,83.40
2023-03-11T07:23:28.010Z,81.84
2023-03-11T07:24:27.992Z,82.32
2023-03-11T07:25:27.990Z,82.01
2023-03-11T07:26:27.974Z,81.90
2023-03-11T07:27:28.256Z,80.86
2023-03-11T07:28:27.945Z,80.06
2023-03-11T07:29:27.983Z,79.75
2023-03-11T07:30:27.930Z,81.21
2023-03-11T07:31:27.937Z,81.00
2023-03-11T07:32:28.362Z,82.05
2023-03-11T07:33:27.918Z,80.69
2023-03-11T07:34:27.889Z,79.61
2023-03-11T07:35:27.876Z,79.92
2023-03-11T07:36:27.877Z,81.49
2023-03-11T07:37:28.216Z,81.90
2023-03-11T07:38:27.857Z,80.62
2023-03-11T07:39:27.849Z,79.36
2023-03-11T07:40:27.835Z,79.15
2023-03-11T07:41:27.821Z,79.15
2023-03-11T07:42:27.840Z,79.15
2023-03-11T07:43:27.809Z,78.42
2023-03-11T07:44:27.795Z,78.63
2023-03-11T07:45:27.790Z,79.68
2023-03-11T07:46:27.827Z,81.35
2023-03-11T07:47:27.760Z,80.79
2023-03-11T07:48:27.756Z,80.79
2023-03-11T07:49:27.759Z,79.01
2023-03-11T07:50:27.741Z,78.18
2023-03-11T07:51:27.731Z,77.76
2023-03-11T07:52:27.723Z,75.81
2023-03-11T07:53:27.722Z,76.86
2023-03-11T07:54:27.713Z,78.00
2023-03-11T07:55:27.694Z,79.47
2023-03-11T07:56:27.704Z,78.28
2023-03-11T07:57:27.674Z,77.45
2023-03-11T07:58:27.649Z,77.55
2023-03-11T07:59:27.657Z,76.82
2023-03-11T08:00:27.632Z,78.39
2023-03-11T08:01:27.658Z,78.49
2023-03-11T08:02:27.665Z,76.09
2023-03-11T08:03:27.639Z,77.66
2023-03-11T08:04:27.610Z,78.80
2023-03-11T08:05:27.601Z,78.49
2023-03-11T08:06:27.590Z,76.09
2023-03-11T08:07:27.576Z,76.51
2023-03-11T08:08:27.587Z,78.39
2023-03-11T08:09:27.543Z,76.72
2023-03-11T08:10:27.567Z,76.20
2023-03-11T08:11:27.536Z,77.14
2023-03-11T08:12:27.530Z,77.97
2023-03-11T08:13:27.509Z,77.00
2023-03-11T08:14:27.506Z,77.10
2023-03-11T08:15:27.548Z,77.72
2023-03-11T08:16:27.490Z,79.19
2023-03-11T08:17:27.480Z,76.47
2023-03-11T08:18:27.466Z,76.06
2023-03-11T08:19:27.450Z,75.53
2023-03-11T08:20:27.522Z,75.85
2023-03-11T08:21:27.424Z,76.89
2023-03-11T08:22:27.434Z,74.91
2023-03-11T08:23:27.432Z,75.05
2023-03-11T08:24:27.406Z,75.88
2023-03-11T08:25:27.408Z,78.28
2023-03-11T08:26:27.401Z,77.66
2023-03-11T08:27:27.397Z,77.31
2023-03-11T08:28:27.366Z,77.94
2023-03-11T08:29:27.354Z,75.22
2023-03-11T08:30:27.380Z,75.12
2023-03-11T08:31:27.408Z,75.22
2023-03-11T08:32:27.404Z,75.01
2023-03-11T08:33:27.313Z,75.85
2023-03-11T08:34:27.304Z,77.00
2023-03-11T08:35:27.316Z,75.01
2023-03-11T08:36:27.298Z,74.07
2023-03-11T08:37:27.286Z,74.07
2023-03-11T08:38:27.442Z,74.70
2023-03-11T08:39:27.259Z,75.95
2023-03-11T08:40:27.407Z,76.68
2023-03-11T08:41:27.227Z,75.12
2023-03-11T08:42:27.222Z,74.38
2023-03-11T08:43:27.219Z,74.91
2023-03-11T08:44:27.208Z,73.55
2023-03-11T08:45:27.194Z,73.76
2023-03-11T08:46:27.259Z,72.09
2023-03-11T08:47:27.166Z,72.72
2023-03-11T08:48:27.176Z,73.45
2023-03-11T08:49:27.145Z,73.86
2023-03-11T08:50:27.227Z,74.38
2023-03-11T08:51:27.135Z,72.72
2023-03-11T08:52:27.120Z,72.68
2023-03-11T08:53:27.136Z,73.00
2023-03-11T08:54:27.101Z,71.26
2023-03-11T08:55:27.092Z,70.42
2023-03-11T08:56:27.092Z,71.36
2023-03-11T08:57:27.076Z,72.30
2023-03-11T08:58:27.075Z,74.28
2023-03-11T08:59:27.043Z,73.55
2023-03-11T09:00:27.035Z,73.52
2023-03-11T09:01:27.035Z,71.64
2023-03-11T09:02:27.083Z,72.61
2023-03-11T09:03:27.017Z,72.30
2023-03-11T09:04:27.002Z,72.61
2023-03-11T09:05:27.034Z,73.41
2023-03-11T09:06:26.992Z,72.89
2023-03-11T09:07:26.958Z,73.52
2023-03-11T09:08:26.964Z,72.75
2023-03-11T09:09:26.949Z,72.65
2023-03-11T09:10:26.947Z,72.96
2023-03-11T09:11:26.938Z,72.44
2023-03-11T09:12:26.922Z,69.97
2023-03-11T09:13:26.921Z,71.50
2023-03-11T09:14:26.901Z,70.70
2023-03-11T09:15:26.889Z,71.01
2023-03-11T09:16:26.899Z,71.64
2023-03-11T09:17:26.876Z,72.78
2023-03-11T09:18:26.862Z,71.75
2023-03-11T09:19:26.854Z,70.91
2023-03-11T09:20:27.053Z,72.06
2023-03-11T09:21:26.830Z,71.19
2023-03-11T09:22:26.822Z,71.53
2023-03-11T09:23:26.815Z,72.27
2023-03-11T09:24:26.796Z,72.34
2023-03-11T09:25:26.785Z,72.44
2023-03-11T09:26:26.775Z,71.71
2023-03-11T09:27:26.762Z,71.61
2023-03-11T09:28:26.777Z,72.44
2023-03-11T09:29:26.746Z,72.55
2023-03-11T09:30:26.768Z,73.55
2023-03-11T09:31:26.812Z,71.16
2023-03-11T09:32:26.748Z,72.51
2023-03-11T09:33:26.718Z,73.42
2023-03-11T09:34:26.691Z,72.27
2023-03-11T09:35:26.736Z,71.02
2023-03-11T09:36:26.679Z,73.00
2023-03-11T09:37:26.663Z,71.65
2023-03-11T09:38:26.663Z,70.92
2023-03-11T09:39:26.640Z,69.98
2023-03-11T09:40:26.657Z,70.64
2023-03-11T09:41:26.635Z,72.83
2023-03-11T09:42:26.634Z,72.79
2023-03-11T09:43:27.128Z,71.44
2023-03-11T09:44:26.611Z,71.12
2023-03-11T09:45:26.578Z,70.81
2023-03-11T09:46:26.653Z,71.86
2023-03-11T09:47:26.563Z,69.25
2023-03-11T09:48:26.572Z,69.25
2023-03-11T09:49:26.548Z,70.50
2023-03-11T09:50:26.525Z,71.33
2023-03-11T09:51:26.537Z,70.09
2023-03-11T09:52:26.511Z,68.63
2023-03-11T09:53:26.500Z,70.61
2023-03-11T09:54:26.488Z,70.29
2023-03-11T09:55:26.484Z,68.66
2023-03-11T09:56:26.472Z,70.32
2023-03-11T09:57:26.453Z,71.54
2023-03-11T09:58:26.830Z,70.09
2023-03-11T09:59:26.438Z,70.99
2023-03-11T10:00:26.434Z,71.72
2023-03-11T10:01:26.420Z,69.64
2023-03-11T10:02:26.483Z,68.07
2023-03-11T10:03:26.550Z,66.86
2023-03-11T10:04:26.382Z,67.27
2023-03-11T10:05:26.378Z,67.72
2023-03-11T10:06:26.379Z,67.41
2023-03-11T10:07:26.349Z,69.28
2023-03-11T10:08:26.670Z,69.15
2023-03-11T10:09:26.341Z,68.42
2023-03-11T10:10:26.339Z,68.73
2023-03-11T10:11:26.313Z,67.07
2023-03-11T10:12:26.320Z,68.91
2023-03-11T10:13:26.688Z,66.44
2023-03-11T10:14:26.281Z,65.40
2023-03-11T10:15:26.311Z,66.93
2023-03-11T10:16:26.285Z,69.01
2023-03-11T10:17:26.244Z,67.21
2023-03-11T10:18:26.245Z,66.14
2023-03-11T10:19:26.226Z,66.56
2023-03-11T10:20:26.229Z,69.23
2023-03-11T10:21:26.212Z,65.69
2023-03-11T10:22:26.226Z,64.62
2023-03-11T10:23:26.426Z,65.45
2023-03-11T10:24:26.183Z,62.78
2023-03-11T10:25:26.185Z,63.93
2023-03-11T10:26:26.161Z,64.37
2023-03-11T10:27:26.145Z,66.94
2023-03-11T10:28:26.492Z,65.69
2023-03-11T10:29:26.136Z,66.28
2023-03-11T10:30:26.119Z,65.35
2023-03-11T10:31:26.110Z,64.42
2023-03-11T10:32:26.111Z,66.18
2023-03-11T10:33:26.173Z,64.11
2023-03-11T10:34:26.073Z,66.08
2023-03-11T10:35:26.057Z,64.62
2023-03-11T10:36:26.056Z,65.45
2023-03-11T10:37:29.076Z,66.18
2023-03-11T10:38:26.040Z,64.00
2023-03-11T10:39:26.022Z,67.43
2023-03-11T10:40:26.009Z,66.50
2023-03-11T10:41:26.016Z,65.04
2023-03-11T10:42:26.008Z,64.83
2023-03-11T10:43:25.982Z,64.21
2023-03-11T10:44:25.986Z,64.94
2023-03-11T10:45:25.970Z,65.56
2023-03-11T10:46:25.952Z,63.79
2023-03-11T10:47:25.943Z,66.15
2023-03-11T10:48:25.950Z,63.11
2023-03-11T10:49:25.932Z,62.52
2023-03-11T10:50:25.911Z,65.22
2023-03-11T10:51:25.902Z,63.73
2023-03-11T10:52:25.890Z,63.45
2023-03-11T10:53:25.883Z,61.69
2023-03-11T10:54:25.876Z,61.82
2023-03-11T10:55:25.859Z,63.51
2023-03-11T10:56:25.852Z,64.86
2023-03-11T10:57:25.849Z,66.31
2023-03-11T10:58:25.838Z,65.45
2023-03-11T10:59:25.818Z,64.42
2023-03-11T11:00:25.828Z,62.62
2023-03-11T11:01:25.808Z,63.56
2023-03-11T11:02:25.802Z,63.84
2023-03-11T11:03:25.812Z,60.70
2023-03-11T11:04:25.849Z,59.04
2023-03-11T11:05:25.757Z,61.94
2023-03-11T11:06:25.765Z,63.16
2023-03-11T11:07:25.747Z,61.50
2023-03-11T11:08:25.730Z,58.91
2023-03-11T11:09:26.946Z,59.63
2023-03-11T11:10:25.712Z,58.47
2023-03-11T11:11:25.727Z,58.05
2023-03-11T11:12:25.717Z,57.87
2023-03-11T11:13:25.670Z,60.46
2023-03-11T11:14:25.672Z,59.53
2023-03-11T11:15:25.660Z,58.39
2023-03-11T11:16:25.689Z,60.18
2023-03-11T11:17:25.689Z,59.35
2023-03-11T11:18:25.626Z,60.83
2023-03-11T11:19:25.632Z,61.24
2023-03-11T11:20:25.624Z,61.11
2023-03-11T11:21:25.591Z,58.13
2023-03-11T11:22:25.601Z,58.47
2023-03-11T11:23:25.570Z,60.34
2023-03-11T11:24:25.594Z,61.58
2023-03-11T11:25:25.638Z,62.38
2023-03-11T11:26:25.588Z,61.24
2023-03-11T11:27:25.550Z,58.54
2023-03-11T11:28:25.534Z,59.66
2023-03-11T11:29:25.532Z,60.02
2023-03-11T11:30:25.510Z,59.40
2023-03-11T11:31:25.506Z,57.74
2023-03-11T11:32:25.557Z,56.49
2023-03-11T11:33:25.470Z,60.95
2023-03-11T11:34:25.480Z,56.91
2023-03-11T11:35:25.486Z,58.47
2023-03-11T11:36:25.447Z,56.81
2023-03-11T11:37:25.424Z,56.00
2023-03-11T11:38:25.470Z,56.31
2023-03-11T11:39:25.409Z,57.17
2023-03-11T11:40:25.404Z,55.64
2023-03-11T11:41:25.395Z,58.47
2023-03-11T11:42:25.381Z,60.72
2023-03-11T11:43:25.363Z,59.79
2023-03-11T11:44:25.383Z,59.38
2023-03-11T11:45:25.345Z,58.44
2023-03-11T11:46:25.388Z,59.17
2023-03-11T11:47:25.331Z,60.91
2023-03-11T11:48:25.324Z,57.51
2023-03-11T11:49:25.309Z,58.03
2023-03-11T11:50:25.300Z,58.57
2023-03-11T11:51:25.281Z,58.34
2023-03-11T11:52:25.281Z,58.86
2023-03-11T11:53:25.285Z,57.40
2023-03-11T11:54:25.270Z,58.23
2023-03-11T11:55:25.261Z,57.20
2023-03-11T11:56:25.238Z,56.08
2023-03-11T11:57:25.215Z,57.61
2023-03-11T11:58:25.215Z,55.77
2023-03-11T11:59:25.221Z,57.61
2023-03-11T12:00:25.213Z,56.65
2023-03-11T12:01:25.190Z,58.15
2023-03-11T12:02:25.173Z,55.87
2023-03-11T12:03:25.211Z,57.22
2023-03-11T12:04:25.170Z,54.32
2023-03-11T12:05:25.201Z,55.07
2023-03-11T12:06:25.134Z,54.83
2023-03-11T12:07:25.125Z,55.20
2023-03-11T12:08:25.113Z,54.97
2023-03-11T12:09:25.107Z,57.71
2023-03-11T12:10:25.088Z,54.38
2023-03-11T12:11:25.079Z,51.92
2023-03-11T12:12:25.076Z,50.99
2023-03-11T12:13:25.062Z,51.34
2023-03-11T12:14:25.071Z,52.20
2023-03-11T12:15:25.058Z,53.36
2023-03-11T12:16:25.039Z,53.77
2023-03-11T12:17:25.017Z,51.75
2023-03-11T12:18:25.048Z,51.96
2023-03-11T12:19:25.005Z,51.65
2023-03-11T12:20:25.020Z,54.13
2023-03-11T12:21:25.012Z,53.92
2023-03-11T12:22:24.970Z,54.44
2023-03-11T12:23:24.967Z,53.51
2023-03-11T12:24:24.957Z,55.58
2023-03-11T12:25:24.952Z,57.40
2023-03-11T12:26:24.963Z,54.29
2023-03-11T12:27:24.926Z,53.62
2023-03-11T12:28:24.909Z,53.26
2023-03-11T12:29:24.925Z,48.90
2023-03-11T12:30:24.890Z,50.86
2023-03-11T12:31:24.998Z,50.92
2023-03-11T12:32:24.899Z,52.11
2023-03-11T12:33:24.882Z,48.78
2023-03-11T12:34:24.869Z,49.40
2023-03-11T12:35:24.875Z,48.91
2023-03-11T12:36:24.855Z,48.95
2023-03-11T12:37:24.823Z,49.93
2023-03-11T12:38:24.795Z,51.09
2023-03-11T12:39:24.835Z,51.73
2023-03-11T12:40:24.777Z,50.89
2023-03-11T12:41:24.779Z,51.07
2023-03-11T12:42:24.769Z,52.49
2023-03-11T12:43:24.766Z,52.15
2023-03-11T12:44:24.746Z,51.87
2023-03-11T12:45:24.795Z,52.58
2023-03-11T12:46:24.777Z,48.35
2023-03-11T12:47:24.715Z,48.63
2023-03-11T12:48:24.718Z,48.86
2023-03-11T12:49:24.694Z,49.32
2023-03-11T12:50:24.692Z,48.31
2023-03-11T12:51:24.696Z,49.99
2023-03-11T12:52:24.661Z,51.10